메인 페이지
METAR-TAF:

METAR-TAF

공항 :

스톡홀름 알란다 국제공항

스톡홀름 알란다, 스웨덴

위도: 59-39N, 경도: 017-57E, 고도: 38m

현재 날씨관측

예보는 38분 전, 02:50시(UTC)에 발표되었습니다.
10kt
온도 19°C
습도 83%
기압 1014 hPa
시정 10km 이상
1500m 미만 상공 구름 및 적란운 없음

METAR: ESSA 170250Z 18010KT CAVOK 19/16 Q1014 NOSIG

시각: 05:28 (03:28 UTC)

예보

예보는 3 시간 58분 전, 23:30시(UTC)에 발표되었습니다.
예보 대상 시간: 17일 00시부터 17일 24시까지 (UTC)
남남동10kt
시정 10km 이상
1500m 미만 상공 구름 및 적란운 없음
일시적
17일 10시부터 17일 14시까지 (UTC)
15kt, 순간 최대 풍속 25kt
전환 중
17일 14시부터 17일 15시까지 (UTC)
서남서8kt
일시적
17일 14시부터 17일 19시까지 (UTC)
여러 방향의 바람 15kt, 순간 최대 풍속 32kt
시정: 2000m
고도 4500ft 상공 구름 많음, 적란운.
뇌우, 비
확률 40%
17일 22시부터 17일 24시까지 (UTC)
시정: 4000m
박무

TAF: ESSA 162330Z 1700/1724 16010KT CAVOK TEMPO 1710/1714 18015G25KT BECMG 1714/1715 24008KT TEMPO 1714/1719 VRB15G32KT 2000 TSRA BKN045CB PROB40 1722/1724 4000 BR

4,000개 이상의 공항 관측 자료 및 예보 (METAR 및 TAF 보고).

지도상에서 검색 가능한 기상관측소가 노란 점과 빨간 점으로 표시되어 있습니다.

기상관측소 명을 보려면 표시 위로 마우스를 이동하세요.

날씨 관측과 예보를 보려면 클릭하세요.

지도 변경 : 확대하려면 엑스 표시가 있는 녹색 버튼, 축소하려면 빼기 표시가 있는 녹색 버튼, 다음 페이지의 지도를 보려면 녹색 화살표를 클릭하세요.


METAR-TAF: